createdAt,value
2018-12-13T00:00:48.633Z,0.60
2018-12-13T00:03:23.247Z,0.70
2018-12-13T00:05:57.823Z,0.70
2018-12-13T00:08:32.580Z,0.70
2018-12-13T00:11:07.501Z,0.70
2018-12-13T00:13:42.341Z,0.70
2018-12-13T00:16:17.089Z,0.70
2018-12-13T00:18:51.795Z,0.70
2018-12-13T00:21:26.525Z,0.80
2018-12-13T00:24:01.266Z,0.80
2018-12-13T00:26:35.939Z,0.80
2018-12-13T00:29:10.682Z,0.70
2018-12-13T00:31:45.334Z,0.70
2018-12-13T00:34:19.922Z,0.70
2018-12-13T00:36:54.578Z,0.60
2018-12-13T00:39:29.044Z,0.60
2018-12-13T00:42:03.843Z,0.50
2018-12-13T00:44:38.458Z,0.50
2018-12-13T00:47:12.830Z,0.40
2018-12-13T00:49:47.674Z,0.30
2018-12-13T00:52:22.253Z,0.30
2018-12-13T00:54:57.059Z,0.30
2018-12-13T00:57:32.010Z,0.20
2018-12-13T01:00:07.008Z,0.30
2018-12-13T01:02:41.734Z,0.30
2018-12-13T01:05:16.475Z,0.30
2018-12-13T01:07:51.434Z,0.30
2018-12-13T01:10:25.947Z,0.40
2018-12-13T01:13:00.453Z,0.30
2018-12-13T01:15:35.161Z,0.30
2018-12-13T01:18:09.979Z,0.30
2018-12-13T01:20:44.782Z,0.30
2018-12-13T01:23:19.425Z,0.30
2018-12-13T01:25:54.103Z,0.30
2018-12-13T01:28:28.788Z,0.30
2018-12-13T01:31:03.652Z,0.30
2018-12-13T01:33:38.343Z,0.30
2018-12-13T01:36:12.926Z,0.30
2018-12-13T01:38:47.676Z,0.30
2018-12-13T01:41:22.109Z,0.30
2018-12-13T01:43:56.737Z,0.30
2018-12-13T01:46:31.605Z,0.30
2018-12-13T01:49:06.248Z,0.30
2018-12-13T01:51:40.898Z,0.30
2018-12-13T01:54:15.561Z,0.30
2018-12-13T01:56:50.274Z,0.40
2018-12-13T01:59:24.805Z,0.40
2018-12-13T02:09:04.996Z,0.50
2018-12-13T02:11:39.733Z,0.40
2018-12-13T02:14:16.343Z,0.40
2018-12-13T02:16:50.954Z,0.40
2018-12-13T02:19:25.608Z,0.40
2018-12-13T02:22:00.327Z,0.40
2018-12-13T02:24:34.930Z,0.40
2018-12-13T02:27:10.303Z,0.40
2018-12-13T02:29:44.814Z,0.40
2018-12-13T02:32:19.602Z,0.40
2018-12-13T02:34:54.348Z,0.40
2018-12-13T02:37:28.947Z,0.30
2018-12-13T02:40:03.751Z,0.30
2018-12-13T02:42:38.314Z,0.30
2018-12-13T02:45:13.243Z,0.30
2018-12-13T02:47:49.222Z,0.40
2018-12-13T02:50:24.060Z,0.40
2018-12-13T02:52:58.778Z,0.40
2018-12-13T02:55:33.711Z,0.40
2018-12-13T02:58:08.638Z,0.40
2018-12-13T03:00:43.180Z,0.40
2018-12-13T03:03:18.452Z,0.40
2018-12-13T03:05:52.965Z,0.40
2018-12-13T03:08:27.634Z,0.40
2018-12-13T03:11:02.161Z,0.40
2018-12-13T03:13:36.869Z,0.40
2018-12-13T03:16:11.528Z,0.40
2018-12-13T03:18:45.940Z,0.30
2018-12-13T03:21:20.529Z,0.40
2018-12-13T03:23:55.233Z,0.40
2018-12-13T03:26:30.095Z,0.40
2018-12-13T03:29:04.894Z,0.30
2018-12-13T03:31:39.594Z,0.30
2018-12-13T03:34:14.181Z,0.30
2018-12-13T03:36:48.917Z,0.30
2018-12-13T03:39:23.493Z,0.30
2018-12-13T03:41:59.494Z,0.30
2018-12-13T03:44:34.313Z,0.30
2018-12-13T03:47:08.824Z,0.30
2018-12-13T03:49:43.463Z,0.30
2018-12-13T03:52:18.028Z,0.30
2018-12-13T03:54:52.572Z,0.30
2018-12-13T03:57:27.233Z,0.30
2018-12-13T04:00:01.662Z,0.30
2018-12-13T04:02:36.303Z,0.30
2018-12-13T04:05:10.971Z,0.30
2018-12-13T04:07:45.400Z,0.30
2018-12-13T04:10:19.919Z,0.30
2018-12-13T04:12:54.664Z,0.30
2018-12-13T04:15:29.400Z,0.40
2018-12-13T04:18:04.218Z,0.40
2018-12-13T04:20:38.882Z,0.40
2018-12-13T04:23:13.636Z,0.40
2018-12-13T04:25:48.238Z,0.30
2018-12-13T04:28:22.864Z,0.30
2018-12-13T04:30:57.568Z,0.30
2018-12-13T04:33:32.160Z,0.40
2018-12-13T04:36:06.816Z,0.40
2018-12-13T04:38:41.406Z,0.40
2018-12-13T04:41:16.054Z,0.40
2018-12-13T04:43:50.778Z,0.40
2018-12-13T04:46:25.421Z,0.40
2018-12-13T04:48:59.870Z,0.40
2018-12-13T04:51:34.600Z,0.40
2018-12-13T04:54:09.471Z,0.40
2018-12-13T04:56:44.128Z,0.40
2018-12-13T04:59:18.623Z,0.40
2018-12-13T05:01:53.060Z,0.40
2018-12-13T05:04:27.681Z,0.40
2018-12-13T05:07:02.599Z,0.40
2018-12-13T05:09:37.307Z,0.50
2018-12-13T05:12:11.803Z,0.40
2018-12-13T05:14:46.682Z,0.40
2018-12-13T05:17:21.236Z,0.40
2018-12-13T05:19:56.062Z,0.40
2018-12-13T05:22:30.721Z,0.40
2018-12-13T05:25:05.454Z,0.40
2018-12-13T05:27:40.124Z,0.40
2018-12-13T05:30:14.733Z,0.40
2018-12-13T05:32:49.446Z,0.30
2018-12-13T05:35:24.128Z,0.40
2018-12-13T05:37:58.921Z,0.30
2018-12-13T05:40:33.542Z,0.30
2018-12-13T05:43:08.123Z,0.20
2018-12-13T05:45:42.882Z,0.20
2018-12-13T05:48:17.520Z,0.20
2018-12-13T05:50:52.207Z,0.20
2018-12-13T05:53:26.924Z,0.20
2018-12-13T05:56:01.514Z,0.20
2018-12-13T05:58:36.300Z,0.20
2018-12-13T06:01:11.331Z,0.10
2018-12-13T06:03:45.964Z,0.10
2018-12-13T06:06:20.673Z,0.10
2018-12-13T06:08:55.284Z,0.10
2018-12-13T06:11:29.858Z,0.10
2018-12-13T06:14:04.630Z,0.10
2018-12-13T06:16:39.267Z,0.10
2018-12-13T06:19:13.857Z,0.10
2018-12-13T06:21:48.409Z,0.10
2018-12-13T06:24:23.266Z,0.10
2018-12-13T06:26:57.849Z,0.10
2018-12-13T06:29:32.470Z,0.10
2018-12-13T06:32:07.089Z,0.00
2018-12-13T06:34:41.709Z,-0.10
2018-12-13T06:37:16.273Z,-0.10
2018-12-13T06:39:50.936Z,-0.30
2018-12-13T06:42:25.672Z,-0.40
2018-12-13T06:45:00.501Z,-0.50
2018-12-13T06:47:35.137Z,-0.60
2018-12-13T06:50:09.861Z,-0.60
2018-12-13T06:52:44.542Z,-0.70
2018-12-13T06:55:19.043Z,-0.70
2018-12-13T06:57:53.687Z,-0.80
2018-12-13T07:00:28.393Z,-0.80
2018-12-13T07:03:02.928Z,-0.90
2018-12-13T07:05:37.440Z,-0.90
2018-12-13T07:08:11.951Z,-1.00
2018-12-13T07:10:46.606Z,-1.00
2018-12-13T07:13:21.264Z,-1.00
2018-12-13T07:15:55.605Z,-1.10
2018-12-13T07:18:30.076Z,-1.10
2018-12-13T07:21:04.659Z,-1.10
2018-12-13T07:23:39.176Z,-1.10
2018-12-13T07:26:13.781Z,-1.10
2018-12-13T07:28:48.490Z,-1.10
2018-12-13T07:31:23.334Z,-1.10
2018-12-13T07:33:57.949Z,-1.10
2018-12-13T07:36:32.597Z,-1.10
2018-12-13T07:39:09.004Z,-1.10
2018-12-13T07:41:43.633Z,-1.00
2018-12-13T07:44:18.250Z,-1.10
2018-12-13T07:46:53.237Z,-1.10
2018-12-13T07:49:27.958Z,-1.00
2018-12-13T07:52:02.640Z,-1.00
2018-12-13T07:54:37.188Z,-1.00
2018-12-13T07:57:11.993Z,-1.00
2018-12-13T07:59:46.751Z,-1.00
2018-12-13T08:02:21.487Z,-0.90
2018-12-13T08:04:56.174Z,-0.90
2018-12-13T08:07:30.880Z,-0.90
2018-12-13T08:10:05.966Z,-0.80
2018-12-13T08:12:40.676Z,-0.80
2018-12-13T08:15:15.317Z,-0.80
2018-12-13T08:17:50.140Z,-0.80
2018-12-13T08:20:24.836Z,-0.70
2018-12-13T08:22:59.640Z,-0.70
2018-12-13T08:25:34.260Z,-0.80
2018-12-13T08:28:09.028Z,-0.80
2018-12-13T08:30:43.741Z,-0.80
2018-12-13T08:33:18.455Z,-0.70
2018-12-13T08:35:53.251Z,-0.50
2018-12-13T08:38:28.000Z,-0.50
2018-12-13T08:41:02.753Z,-0.50
2018-12-13T08:43:37.504Z,-0.40
2018-12-13T08:46:12.214Z,-0.40
2018-12-13T08:48:47.018Z,-0.30
2018-12-13T08:51:22.882Z,-0.30
2018-12-13T08:53:57.546Z,-0.30
2018-12-13T08:56:32.143Z,-0.20
2018-12-13T08:59:06.823Z,-0.10
2018-12-13T09:01:41.752Z,0.00
2018-12-13T09:04:16.587Z,0.10
2018-12-13T09:06:52.435Z,0.20
2018-12-13T09:09:27.089Z,0.20
2018-12-13T09:12:01.789Z,0.30
2018-12-13T09:14:36.638Z,0.30
2018-12-13T09:17:11.433Z,0.30
2018-12-13T09:19:46.389Z,0.40
2018-12-13T09:22:21.108Z,0.40
2018-12-13T09:24:55.787Z,0.50
2018-12-13T09:27:30.607Z,0.40
2018-12-13T09:30:06.208Z,0.40
2018-12-13T09:32:41.598Z,0.40
2018-12-13T09:35:16.292Z,0.50
2018-12-13T09:37:50.999Z,0.40
2018-12-13T09:40:25.825Z,0.40
2018-12-13T09:43:00.472Z,0.40
2018-12-13T09:45:34.965Z,0.40
2018-12-13T09:48:09.513Z,0.30
2018-12-13T09:50:44.306Z,0.20
2018-12-13T09:53:19.080Z,0.30
2018-12-13T09:55:53.838Z,0.30
2018-12-13T09:58:28.772Z,0.30
2018-12-13T10:01:03.707Z,0.30
2018-12-13T10:03:38.525Z,0.30
2018-12-13T10:06:13.300Z,0.40
2018-12-13T10:08:48.183Z,0.40
2018-12-13T10:11:23.041Z,0.40
2018-12-13T10:13:58.070Z,0.40
2018-12-13T10:16:32.806Z,0.30
2018-12-13T10:19:07.407Z,0.30
2018-12-13T10:21:42.192Z,0.30
2018-12-13T10:24:17.177Z,0.40
2018-12-13T10:26:51.853Z,0.40
2018-12-13T10:29:26.589Z,0.50
2018-12-13T10:32:01.453Z,0.60
2018-12-13T10:34:36.268Z,0.60
2018-12-13T10:37:10.973Z,0.70
2018-12-13T10:39:45.867Z,0.70
2018-12-13T10:42:20.552Z,0.70
2018-12-13T10:44:55.281Z,0.70
2018-12-13T10:47:30.018Z,0.70
2018-12-13T10:50:05.990Z,0.80
2018-12-13T10:52:40.847Z,0.90
2018-12-13T10:55:15.577Z,0.90
2018-12-13T10:57:50.255Z,1.10
2018-12-13T11:00:30.618Z,1.10
2018-12-13T11:03:23.775Z,1.10
2018-12-13T11:05:58.462Z,1.20
2018-12-13T11:08:33.146Z,1.20
2018-12-13T11:11:07.603Z,1.30
2018-12-13T11:13:42.452Z,1.40
2018-12-13T11:16:17.101Z,1.40
2018-12-13T11:18:51.875Z,1.40
2018-12-13T11:21:26.770Z,1.40
2018-12-13T11:24:01.421Z,1.40
2018-12-13T11:26:36.226Z,1.40
2018-12-13T11:29:22.338Z,1.40
2018-12-13T11:31:56.964Z,1.40
2018-12-13T11:34:31.475Z,1.40
2018-12-13T11:37:06.237Z,1.40
2018-12-13T11:39:40.987Z,1.40
2018-12-13T11:42:15.850Z,1.50
2018-12-13T11:44:50.439Z,1.50
2018-12-13T11:47:24.936Z,1.50
2018-12-13T11:49:59.476Z,1.50
2018-12-13T11:52:34.373Z,1.60
2018-12-13T11:55:22.328Z,1.60
2018-12-13T11:57:57.236Z,1.70
2018-12-13T12:00:38.644Z,1.80
2018-12-13T12:03:14.270Z,1.90
2018-12-13T12:05:48.991Z,1.90
2018-12-13T12:08:23.730Z,1.80
2018-12-13T12:10:58.363Z,1.80
2018-12-13T12:13:33.190Z,1.80
2018-12-13T12:16:07.769Z,1.70
2018-12-13T12:18:42.481Z,1.60
2018-12-13T12:21:20.036Z,1.60
2018-12-13T12:23:54.632Z,1.50
2018-12-13T12:26:29.158Z,1.50
2018-12-13T12:29:03.686Z,1.60
2018-12-13T12:31:38.394Z,1.70
2018-12-13T12:34:13.003Z,1.70
2018-12-13T12:36:47.545Z,1.70
2018-12-13T12:39:22.289Z,1.80
2018-12-13T12:41:56.779Z,1.90
2018-12-13T12:44:34.690Z,1.90
2018-12-13T12:47:09.598Z,1.90
2018-12-13T12:49:44.289Z,2.00
2018-12-13T12:52:19.094Z,2.00
2018-12-13T12:54:53.687Z,1.90
2018-12-13T12:57:28.120Z,1.90
2018-12-13T13:00:03.078Z,1.90
2018-12-13T13:02:37.802Z,1.90
2018-12-13T13:05:12.225Z,1.90
2018-12-13T13:07:46.826Z,1.80
2018-12-13T13:10:21.214Z,1.90
2018-12-13T13:12:55.655Z,2.00
2018-12-13T13:15:30.157Z,2.00
2018-12-13T13:18:04.688Z,2.00
2018-12-13T13:20:39.215Z,2.00
2018-12-13T13:23:13.663Z,2.10
2018-12-13T13:25:48.369Z,2.00
2018-12-13T13:28:23.070Z,1.90
2018-12-13T13:30:57.756Z,1.80
2018-12-13T13:33:32.525Z,1.80
2018-12-13T13:36:07.762Z,1.80
2018-12-13T13:38:42.465Z,1.80
2018-12-13T13:41:17.085Z,1.80
2018-12-13T13:43:51.688Z,1.60
2018-12-13T13:46:26.160Z,1.50
2018-12-13T13:49:00.853Z,1.50
2018-12-13T13:51:35.457Z,1.50
2018-12-13T13:54:10.188Z,1.40
2018-12-13T13:56:44.949Z,1.40
2018-12-13T13:59:19.695Z,1.40
2018-12-13T14:01:54.333Z,1.30
2018-12-13T14:04:28.989Z,1.20
2018-12-13T14:07:03.607Z,1.20
2018-12-13T14:09:38.289Z,1.00
2018-12-13T14:12:12.973Z,1.00
2018-12-13T14:14:47.470Z,0.90
2018-12-13T14:17:21.839Z,0.90
2018-12-13T14:19:56.403Z,0.90
2018-12-13T14:22:30.972Z,1.00
2018-12-13T14:25:05.758Z,1.00
2018-12-13T14:27:40.395Z,0.90
2018-12-13T14:30:14.868Z,0.90
2018-12-13T14:32:49.648Z,0.80
2018-12-13T14:35:24.241Z,0.80
2018-12-13T14:37:58.726Z,0.70
2018-12-13T14:40:33.439Z,0.70
2018-12-13T14:43:08.016Z,0.70
2018-12-13T14:45:42.592Z,0.80
2018-12-13T14:48:17.253Z,0.90
2018-12-13T14:50:51.884Z,0.90
2018-12-13T14:53:26.395Z,0.70
2018-12-13T14:56:00.986Z,0.70
2018-12-13T14:58:35.731Z,0.70
2018-12-13T15:01:10.400Z,0.70
2018-12-13T15:03:45.128Z,0.70
2018-12-13T15:06:19.878Z,0.60
2018-12-13T15:08:54.428Z,0.50
2018-12-13T15:11:29.042Z,0.50
2018-12-13T15:14:03.948Z,0.50
2018-12-13T15:16:38.653Z,0.40
2018-12-13T15:19:13.368Z,0.40
2018-12-13T15:21:47.834Z,0.40
2018-12-13T15:24:22.353Z,0.40
2018-12-13T15:26:57.053Z,0.40
2018-12-13T15:29:31.656Z,0.40
2018-12-13T15:32:06.378Z,0.30
2018-12-13T15:34:41.177Z,0.30
2018-12-13T15:37:15.745Z,0.30
2018-12-13T15:39:50.141Z,0.20
2018-12-13T15:42:25.062Z,0.20
2018-12-13T15:44:59.624Z,0.20
2018-12-13T15:47:34.246Z,0.10
2018-12-13T15:50:09.113Z,0.00
2018-12-13T15:52:43.726Z,0.00
2018-12-13T15:55:18.329Z,0.00
2018-12-13T15:57:52.843Z,0.00
2018-12-13T16:00:28.461Z,0.00
2018-12-13T16:03:03.128Z,-0.10
2018-12-13T16:05:37.852Z,-0.10
2018-12-13T16:08:12.396Z,-0.10
2018-12-13T16:10:47.021Z,-0.10
2018-12-13T16:13:22.835Z,-0.20
2018-12-13T16:15:57.456Z,-0.20
2018-12-13T16:18:32.170Z,-0.30
2018-12-13T16:21:06.782Z,-0.30
2018-12-13T16:23:41.482Z,-0.30
2018-12-13T16:26:16.242Z,-0.30
2018-12-13T16:28:50.604Z,-0.30
2018-12-13T16:31:25.173Z,-0.30
2018-12-13T16:34:00.012Z,-0.30
2018-12-13T16:36:34.468Z,-0.30
2018-12-13T16:39:09.400Z,-0.20
2018-12-13T16:41:43.845Z,-0.20
2018-12-13T16:44:18.645Z,-0.20
2018-12-13T16:46:53.170Z,-0.30
2018-12-13T16:49:27.900Z,-0.20
2018-12-13T16:52:02.489Z,-0.20
2018-12-13T16:54:37.173Z,-0.20
2018-12-13T16:57:11.708Z,-0.30
2018-12-13T16:59:46.488Z,-0.30
2018-12-13T17:02:21.199Z,-0.30
2018-12-13T17:04:56.047Z,-0.40
2018-12-13T17:07:30.665Z,-0.40
2018-12-13T17:10:06.402Z,-0.40
2018-12-13T17:12:40.973Z,-0.40
2018-12-13T17:15:15.498Z,-0.40
2018-12-13T17:17:50.160Z,-0.30
2018-12-13T17:20:25.058Z,-0.40
2018-12-13T17:22:59.674Z,-0.30
2018-12-13T17:25:34.396Z,-0.30
2018-12-13T17:28:09.048Z,-0.30
2018-12-13T17:30:43.535Z,-0.30
2018-12-13T17:33:18.284Z,-0.30
2018-12-13T17:35:52.865Z,-0.40
2018-12-13T17:38:27.435Z,-0.40
2018-12-13T17:41:04.186Z,-0.50
2018-12-13T17:43:38.818Z,-0.50
2018-12-13T17:46:13.460Z,-0.50
2018-12-13T17:48:48.187Z,-0.50
2018-12-13T17:51:23.175Z,-0.50
2018-12-13T17:53:58.814Z,-0.50
2018-12-13T17:56:33.459Z,-0.60
2018-12-13T17:59:08.146Z,-0.60
2018-12-13T18:01:42.707Z,-0.60
2018-12-13T18:04:17.288Z,-0.70
2018-12-13T18:06:52.179Z,-0.70
2018-12-13T18:09:26.858Z,-0.70
2018-12-13T18:12:01.891Z,-0.80
2018-12-13T18:14:37.647Z,-0.80
2018-12-13T18:17:12.547Z,-0.80
2018-12-13T18:19:47.054Z,-0.90
2018-12-13T18:22:22.040Z,-0.90
2018-12-13T18:24:56.809Z,-0.90
2018-12-13T18:27:31.552Z,-0.90
2018-12-13T18:30:07.872Z,-1.00
2018-12-13T18:32:42.397Z,-1.00
2018-12-13T18:35:17.206Z,-1.00
2018-12-13T18:37:51.622Z,-1.00
2018-12-13T18:40:26.315Z,-1.00
2018-12-13T18:43:01.014Z,-1.00
2018-12-13T18:45:39.115Z,-1.00
2018-12-13T18:48:13.863Z,-1.00
2018-12-13T18:50:48.341Z,-1.00
2018-12-13T18:53:22.936Z,-1.00
2018-12-13T18:55:57.847Z,-1.00
2018-12-13T18:58:32.607Z,-1.00
2018-12-13T19:01:07.497Z,-1.00
2018-12-13T19:03:42.493Z,-0.90
2018-12-13T19:06:17.005Z,-1.00
2018-12-13T19:08:51.626Z,-1.00
2018-12-13T19:11:26.383Z,-1.00
2018-12-13T19:14:00.902Z,-1.10
2018-12-13T19:16:35.662Z,-1.10
2018-12-13T19:19:10.532Z,-1.10
2018-12-13T19:21:45.264Z,-1.20
2018-12-13T19:24:20.006Z,-1.20
2018-12-13T19:26:55.602Z,-1.20
2018-12-13T19:29:30.924Z,-1.20
2018-12-13T19:32:05.824Z,-1.20
2018-12-13T19:34:40.590Z,-1.30
2018-12-13T19:37:15.345Z,-1.30
2018-12-13T19:39:49.965Z,-1.30
2018-12-13T19:42:25.026Z,-1.30
2018-12-13T19:45:00.763Z,-1.30
2018-12-13T19:47:35.505Z,-1.30
2018-12-13T19:50:10.313Z,-1.30
2018-12-13T19:52:44.779Z,-1.30
2018-12-13T19:55:19.250Z,-1.30
2018-12-13T19:57:53.980Z,-1.20
2018-12-13T20:00:30.718Z,-1.20
2018-12-13T20:03:05.525Z,-1.30
2018-12-13T20:05:40.159Z,-1.30
2018-12-13T20:08:16.115Z,-1.40
2018-12-13T20:10:54.657Z,-1.50
2018-12-13T20:13:27.359Z,-1.60
2018-12-13T20:17:31.064Z,-1.60
2018-12-13T20:20:06.426Z,-1.70
2018-12-13T20:22:41.022Z,-1.70
2018-12-13T20:25:15.728Z,-1.70
2018-12-13T20:27:50.211Z,-1.80
2018-12-13T20:30:24.521Z,-1.80
2018-12-13T20:32:58.965Z,-1.90
2018-12-13T20:35:33.557Z,-1.90
2018-12-13T20:38:08.139Z,-1.90
2018-12-13T20:40:42.614Z,-1.90
2018-12-13T20:43:17.151Z,-1.90
2018-12-13T20:45:51.909Z,-1.90
2018-12-13T20:48:26.593Z,-2.00
2018-12-13T20:51:01.125Z,-2.10
2018-12-13T20:53:35.870Z,-2.20
2018-12-13T20:56:10.618Z,-2.30
2018-12-13T20:58:45.324Z,-2.30
2018-12-13T21:01:19.871Z,-2.40
2018-12-13T21:03:54.204Z,-2.50
2018-12-13T21:06:28.987Z,-2.60
2018-12-13T21:09:05.233Z,-2.70
2018-12-13T21:11:40.160Z,-2.80
2018-12-13T21:14:16.659Z,-2.90
2018-12-13T21:16:51.353Z,-3.00
2018-12-13T21:19:27.183Z,-3.10
2018-12-13T21:22:01.919Z,-3.20
2018-12-13T21:24:36.757Z,-3.30
2018-12-13T21:27:11.477Z,-3.40
2018-12-13T21:29:46.185Z,-3.40
2018-12-13T21:32:21.027Z,-3.40
2018-12-13T21:34:56.139Z,-3.50
2018-12-13T21:37:31.193Z,-3.50
2018-12-13T21:40:06.676Z,-3.50
2018-12-13T21:42:41.413Z,-3.50
2018-12-13T21:45:16.019Z,-3.50
2018-12-13T21:47:50.469Z,-3.50
2018-12-13T21:50:26.164Z,-3.60
2018-12-13T21:53:00.904Z,-3.60
2018-12-13T21:55:35.448Z,-3.70
2018-12-13T21:58:10.682Z,-3.70
2018-12-13T22:00:45.658Z,-3.80
2018-12-13T22:03:20.194Z,-3.80
2018-12-13T22:05:55.214Z,-3.80
2018-12-13T22:08:31.331Z,-3.90
2018-12-13T22:11:05.701Z,-3.90
2018-12-13T22:13:41.607Z,-3.90
2018-12-13T22:16:17.159Z,-3.80
2018-12-13T22:18:51.608Z,-3.80
2018-12-13T22:21:26.399Z,-3.60
2018-12-13T22:24:01.112Z,-3.50
2018-12-13T22:26:36.129Z,-3.40
2018-12-13T22:29:11.714Z,-3.30
2018-12-13T22:31:47.060Z,-3.30
2018-12-13T22:34:21.820Z,-3.20
2018-12-13T22:36:56.635Z,-3.20
2018-12-13T22:39:31.563Z,-3.10
2018-12-13T22:44:48.772Z,-3.10
2018-12-13T22:47:23.422Z,-3.10
2018-12-13T22:49:58.180Z,-3.10
2018-12-13T22:52:33.010Z,-3.00
2018-12-13T22:55:07.667Z,-3.00
2018-12-13T22:57:43.313Z,-3.00
2018-12-13T23:00:18.093Z,-3.00
2018-12-13T23:02:52.810Z,-3.00
2018-12-13T23:05:28.118Z,-2.90
2018-12-13T23:08:03.117Z,-2.90
2018-12-13T23:10:37.701Z,-2.90
2018-12-13T23:13:12.281Z,-2.80
2018-12-13T23:15:46.709Z,-2.80
2018-12-13T23:18:22.704Z,-2.80
2018-12-13T23:20:57.594Z,-2.80
2018-12-13T23:23:32.229Z,-2.80
2018-12-13T23:26:07.462Z,-2.80
2018-12-13T23:28:42.302Z,-2.90
2018-12-13T23:31:16.798Z,-2.90
2018-12-13T23:33:51.991Z,-2.90
2018-12-13T23:36:26.946Z,-2.90
2018-12-13T23:39:08.212Z,-2.90
2018-12-13T23:41:43.113Z,-2.90
2018-12-13T23:44:19.419Z,-2.90
2018-12-13T23:46:54.049Z,-2.90
2018-12-13T23:49:28.954Z,-2.90
2018-12-13T23:54:40.434Z,-2.90
2018-12-13T23:57:15.264Z,-2.90
2018-12-13T23:59:51.274Z,-2.90
